San Antonio, Texas
Traffic Map
Current Weather Conditions
San Antonio, Texas
Overcast
Overcast
23°
Feels Like: 23°
Wind Chill: 23° Ceiling: 1500
Heat Index: 23° Visibility: 10mi
Dew Point: 19° Wind: 2mph
Humidity: 78% Direction: 260° (W)
Pressure: 29.89in Gusts: 0mph
Raw Report DataKSKF 241703Z AUTO 26002KT 10SM OVC015 23/19 A2989 RMK AO2 $
Traffic Incident Summary
Active as of:
Severity:
Category:
InformationThere was an issue retrieving the traffic information for this location. Please try a different location or try again shortly.
Advertisements
At Last! Intellicast now available for iPhone and Android